sensor_id;sensor_type;location;lat;lon;timestamp;P1;durP1;ratioP1;P2;durP2;ratioP2
1751;SDS011;873;47.696;8.068;2022-12-24T00:01:53;6.30;;;1.57;;
1751;SDS011;873;47.696;8.068;2022-12-24T00:04:18;2.30;;;1.40;;
1751;SDS011;873;47.696;8.068;2022-12-24T00:06:44;4.00;;;1.60;;
1751;SDS011;873;47.696;8.068;2022-12-24T00:09:09;4.80;;;1.60;;
1751;SDS011;873;47.696;8.068;2022-12-24T00:11:35;5.07;;;1.50;;
1751;SDS011;873;47.696;8.068;2022-12-24T00:14:00;3.37;;;1.03;;
1751;SDS011;873;47.696;8.068;2022-12-24T00:16:26;3.50;;;1.50;;
1751;SDS011;873;47.696;8.068;2022-12-24T00:18:52;3.97;;;1.53;;
1751;SDS011;873;47.696;8.068;2022-12-24T00:21:17;3.20;;;0.97;;
1751;SDS011;873;47.696;8.068;2022-12-24T00:23:43;3.67;;;1.30;;
1751;SDS011;873;47.696;8.068;2022-12-24T00:26:09;6.03;;;1.37;;
1751;SDS011;873;47.696;8.068;2022-12-24T00:28:34;3.77;;;1.47;;
1751;SDS011;873;47.696;8.068;2022-12-24T00:31:16;10.77;;;2.47;;
1751;SDS011;873;47.696;8.068;2022-12-24T00:33:44;1.63;;;1.10;;
1751;SDS011;873;47.696;8.068;2022-12-24T00:36:10;2.97;;;0.97;;
1751;SDS011;873;47.696;8.068;2022-12-24T00:38:36;5.03;;;1.13;;
1751;SDS011;873;47.696;8.068;2022-12-24T00:41:02;6.93;;;1.43;;
1751;SDS011;873;47.696;8.068;2022-12-24T00:43:29;3.77;;;1.50;;
1751;SDS011;873;47.696;8.068;2022-12-24T00:45:55;3.23;;;1.20;;
1751;SDS011;873;47.696;8.068;2022-12-24T00:48:21;3.97;;;1.40;;
1751;SDS011;873;47.696;8.068;2022-12-24T00:50:47;5.40;;;1.23;;
1751;SDS011;873;47.696;8.068;2022-12-24T00:53:14;4.53;;;1.77;;
1751;SDS011;873;47.696;8.068;2022-12-24T00:55:39;5.60;;;1.30;;
1751;SDS011;873;47.696;8.068;2022-12-24T00:58:05;2.27;;;0.90;;
1751;SDS011;873;47.696;8.068;2022-12-24T01:00:30;7.83;;;1.40;;
1751;SDS011;873;47.696;8.068;2022-12-24T01:02:56;3.07;;;1.37;;
1751;SDS011;873;47.696;8.068;2022-12-24T01:05:21;3.07;;;1.10;;
1751;SDS011;873;47.696;8.068;2022-12-24T01:07:47;3.20;;;1.47;;
1751;SDS011;873;47.696;8.068;2022-12-24T01:10:15;4.43;;;1.47;;
1751;SDS011;873;47.696;8.068;2022-12-24T01:12:43;4.30;;;1.00;;
1751;SDS011;873;47.696;8.068;2022-12-24T01:15:09;4.50;;;1.00;;
1751;SDS011;873;47.696;8.068;2022-12-24T01:17:36;5.33;;;1.23;;
1751;SDS011;873;47.696;8.068;2022-12-24T01:20:02;6.30;;;1.27;;
1751;SDS011;873;47.696;8.068;2022-12-24T01:22:28;2.73;;;1.30;;
1751;SDS011;873;47.696;8.068;2022-12-24T01:24:54;2.90;;;1.20;;
1751;SDS011;873;47.696;8.068;2022-12-24T01:27:19;6.60;;;1.40;;
1751;SDS011;873;47.696;8.068;2022-12-24T01:29:45;6.00;;;1.40;;
1751;SDS011;873;47.696;8.068;2022-12-24T01:32:11;9.40;;;1.20;;
1751;SDS011;873;47.696;8.068;2022-12-24T01:34:36;2.83;;;1.07;;
1751;SDS011;873;47.696;8.068;2022-12-24T01:37:02;8.17;;;1.37;;
1751;SDS011;873;47.696;8.068;2022-12-24T01:39:27;4.47;;;1.20;;
1751;SDS011;873;47.696;8.068;2022-12-24T01:41:53;3.23;;;0.97;;
1751;SDS011;873;47.696;8.068;2022-12-24T01:44:39;5.00;;;1.43;;
1751;SDS011;873;47.696;8.068;2022-12-24T01:49:49;3.90;;;1.70;;
1751;SDS011;873;47.696;8.068;2022-12-24T01:52:19;3.70;;;1.30;;
1751;SDS011;873;47.696;8.068;2022-12-24T01:54:48;10.20;;;1.27;;
1751;SDS011;873;47.696;8.068;2022-12-24T01:57:18;4.70;;;0.97;;
1751;SDS011;873;47.696;8.068;2022-12-24T01:59:58;6.63;;;1.43;;
1751;SDS011;873;47.696;8.068;2022-12-24T02:02:27;4.13;;;0.97;;
1751;SDS011;873;47.696;8.068;2022-12-24T02:07:48;7.23;;;1.37;;
1751;SDS011;873;47.696;8.068;2022-12-24T02:10:15;4.57;;;1.00;;
1751;SDS011;873;47.696;8.068;2022-12-24T02:12:41;3.83;;;1.13;;
1751;SDS011;873;47.696;8.068;2022-12-24T02:15:08;6.33;;;1.20;;
1751;SDS011;873;47.696;8.068;2022-12-24T02:23:46;4.70;;;1.50;;
1751;SDS011;873;47.696;8.068;2022-12-24T02:31:52;3.60;;;1.50;;
1751;SDS011;873;47.696;8.068;2022-12-24T02:34:35;4.37;;;1.13;;
1751;SDS011;873;47.696;8.068;2022-12-24T02:37:05;5.10;;;1.30;;
1751;SDS011;873;47.696;8.068;2022-12-24T02:39:39;6.97;;;1.80;;
1751;SDS011;873;47.696;8.068;2022-12-24T02:42:09;3.97;;;0.80;;
1751;SDS011;873;47.696;8.068;2022-12-24T02:44:39;6.30;;;1.23;;
1751;SDS011;873;47.696;8.068;2022-12-24T02:47:09;4.00;;;1.17;;
1751;SDS011;873;47.696;8.068;2022-12-24T02:49:36;5.20;;;1.23;;
1751;SDS011;873;47.696;8.068;2022-12-24T02:52:02;7.27;;;1.60;;
1751;SDS011;873;47.696;8.068;2022-12-24T02:54:27;7.43;;;1.47;;
1751;SDS011;873;47.696;8.068;2022-12-24T03:05:20;6.87;;;1.13;;
1751;SDS011;873;47.696;8.068;2022-12-24T03:08:05;10.07;;;1.57;;
1751;SDS011;873;47.696;8.068;2022-12-24T03:10:43;8.67;;;1.50;;
1751;SDS011;873;47.696;8.068;2022-12-24T03:13:14;7.47;;;1.30;;
1751;SDS011;873;47.696;8.068;2022-12-24T03:15:41;7.57;;;1.27;;
1751;SDS011;873;47.696;8.068;2022-12-24T03:18:07;7.30;;;1.27;;
1751;SDS011;873;47.696;8.068;2022-12-24T03:20:36;4.57;;;1.43;;
1751;SDS011;873;47.696;8.068;2022-12-24T03:23:03;9.07;;;1.40;;
1751;SDS011;873;47.696;8.068;2022-12-24T03:25:29;8.20;;;1.63;;
1751;SDS011;873;47.696;8.068;2022-12-24T03:27:57;4.93;;;1.20;;
1751;SDS011;873;47.696;8.068;2022-12-24T03:30:23;5.43;;;1.07;;
1751;SDS011;873;47.696;8.068;2022-12-24T03:32:50;10.43;;;1.63;;
1751;SDS011;873;47.696;8.068;2022-12-24T03:35:15;6.17;;;1.40;;
1751;SDS011;873;47.696;8.068;2022-12-24T03:37:41;5.27;;;1.37;;
1751;SDS011;873;47.696;8.068;2022-12-24T03:40:07;7.23;;;1.43;;
1751;SDS011;873;47.696;8.068;2022-12-24T03:42:33;12.13;;;2.00;;
1751;SDS011;873;47.696;8.068;2022-12-24T03:44:58;5.83;;;1.40;;
1751;SDS011;873;47.696;8.068;2022-12-24T03:47:24;5.23;;;1.10;;
1751;SDS011;873;47.696;8.068;2022-12-24T03:49:49;5.27;;;1.43;;
1751;SDS011;873;47.696;8.068;2022-12-24T03:52:14;8.67;;;1.83;;
1751;SDS011;873;47.696;8.068;2022-12-24T03:54:40;9.27;;;1.40;;
1751;SDS011;873;47.696;8.068;2022-12-24T03:57:05;9.50;;;1.50;;
1751;SDS011;873;47.696;8.068;2022-12-24T03:59:31;10.97;;;1.87;;
1751;SDS011;873;47.696;8.068;2022-12-24T04:01:56;8.77;;;1.80;;
1751;SDS011;873;47.696;8.068;2022-12-24T04:04:22;7.67;;;2.00;;
1751;SDS011;873;47.696;8.068;2022-12-24T04:06:48;7.73;;;1.57;;
1751;SDS011;873;47.696;8.068;2022-12-24T04:09:13;9.83;;;1.03;;
1751;SDS011;873;47.696;8.068;2022-12-24T04:11:39;12.03;;;2.33;;
1751;SDS011;873;47.696;8.068;2022-12-24T04:14:04;9.57;;;2.20;;
1751;SDS011;873;47.696;8.068;2022-12-24T04:16:30;11.27;;;1.23;;
1751;SDS011;873;47.696;8.068;2022-12-24T04:18:55;8.60;;;1.80;;
1751;SDS011;873;47.696;8.068;2022-12-24T04:21:21;12.33;;;1.30;;
1751;SDS011;873;47.696;8.068;2022-12-24T04:23:46;9.93;;;1.53;;
1751;SDS011;873;47.696;8.068;2022-12-24T04:26:12;7.03;;;1.80;;
1751;SDS011;873;47.696;8.068;2022-12-24T04:28:39;12.30;;;1.90;;
1751;SDS011;873;47.696;8.068;2022-12-24T04:31:07;10.30;;;1.60;;
1751;SDS011;873;47.696;8.068;2022-12-24T04:33:34;11.40;;;1.80;;
1751;SDS011;873;47.696;8.068;2022-12-24T04:36:00;12.50;;;2.23;;
1751;SDS011;873;47.696;8.068;2022-12-24T04:38:27;10.43;;;2.20;;
1751;SDS011;873;47.696;8.068;2022-12-24T04:40:57;11.40;;;2.13;;
1751;SDS011;873;47.696;8.068;2022-12-24T04:43:26;15.93;;;2.50;;
1751;SDS011;873;47.696;8.068;2022-12-24T04:45:52;7.53;;;1.80;;
1751;SDS011;873;47.696;8.068;2022-12-24T04:48:17;13.63;;;2.43;;
1751;SDS011;873;47.696;8.068;2022-12-24T04:50:43;11.63;;;1.90;;
1751;SDS011;873;47.696;8.068;2022-12-24T04:53:08;9.53;;;1.63;;
1751;SDS011;873;47.696;8.068;2022-12-24T04:55:34;6.77;;;1.93;;
1751;SDS011;873;47.696;8.068;2022-12-24T04:57:59;7.57;;;1.67;;
1751;SDS011;873;47.696;8.068;2022-12-24T05:00:25;12.27;;;1.97;;
1751;SDS011;873;47.696;8.068;2022-12-24T05:02:50;10.63;;;1.60;;
1751;SDS011;873;47.696;8.068;2022-12-24T05:05:16;10.00;;;2.10;;
1751;SDS011;873;47.696;8.068;2022-12-24T05:07:41;6.80;;;1.87;;
1751;SDS011;873;47.696;8.068;2022-12-24T05:10:07;14.10;;;1.60;;
1751;SDS011;873;47.696;8.068;2022-12-24T05:12:33;9.43;;;1.60;;
1751;SDS011;873;47.696;8.068;2022-12-24T05:14:58;5.30;;;1.30;;
1751;SDS011;873;47.696;8.068;2022-12-24T05:17:24;9.30;;;1.57;;
1751;SDS011;873;47.696;8.068;2022-12-24T05:19:50;8.47;;;1.40;;
1751;SDS011;873;47.696;8.068;2022-12-24T05:22:15;8.97;;;1.67;;
1751;SDS011;873;47.696;8.068;2022-12-24T05:25:01;5.97;;;1.50;;
1751;SDS011;873;47.696;8.068;2022-12-24T05:27:47;11.47;;;1.80;;
1751;SDS011;873;47.696;8.068;2022-12-24T05:30:12;10.43;;;1.50;;
1751;SDS011;873;47.696;8.068;2022-12-24T05:32:38;17.27;;;2.03;;
1751;SDS011;873;47.696;8.068;2022-12-24T05:35:03;4.63;;;1.20;;
1751;SDS011;873;47.696;8.068;2022-12-24T05:37:29;10.80;;;1.90;;
1751;SDS011;873;47.696;8.068;2022-12-24T05:39:54;8.07;;;1.60;;
1751;SDS011;873;47.696;8.068;2022-12-24T05:42:20;7.97;;;1.37;;
1751;SDS011;873;47.696;8.068;2022-12-24T05:44:45;10.03;;;1.90;;
1751;SDS011;873;47.696;8.068;2022-12-24T05:47:11;9.97;;;2.20;;
1751;SDS011;873;47.696;8.068;2022-12-24T05:49:36;11.13;;;2.10;;
1751;SDS011;873;47.696;8.068;2022-12-24T05:52:02;9.73;;;1.70;;
1751;SDS011;873;47.696;8.068;2022-12-24T05:54:27;12.17;;;1.57;;
1751;SDS011;873;47.696;8.068;2022-12-24T05:56:53;6.80;;;1.27;;
1751;SDS011;873;47.696;8.068;2022-12-24T05:59:18;10.13;;;2.20;;
1751;SDS011;873;47.696;8.068;2022-12-24T06:01:44;9.40;;;1.37;;
1751;SDS011;873;47.696;8.068;2022-12-24T06:04:12;16.10;;;1.70;;
1751;SDS011;873;47.696;8.068;2022-12-24T06:06:37;8.47;;;1.87;;
1751;SDS011;873;47.696;8.068;2022-12-24T06:09:03;5.97;;;1.60;;
1751;SDS011;873;47.696;8.068;2022-12-24T06:11:28;7.47;;;1.37;;
1751;SDS011;873;47.696;8.068;2022-12-24T06:13:54;10.97;;;1.83;;
1751;SDS011;873;47.696;8.068;2022-12-24T06:16:20;13.57;;;1.70;;
1751;SDS011;873;47.696;8.068;2022-12-24T06:18:47;11.73;;;1.87;;
1751;SDS011;873;47.696;8.068;2022-12-24T06:21:12;12.83;;;1.83;;
1751;SDS011;873;47.696;8.068;2022-12-24T06:23:39;12.37;;;1.77;;
1751;SDS011;873;47.696;8.068;2022-12-24T06:26:07;11.00;;;2.00;;
1751;SDS011;873;47.696;8.068;2022-12-24T06:28:34;9.93;;;1.47;;
1751;SDS011;873;47.696;8.068;2022-12-24T06:31:01;6.30;;;1.73;;
1751;SDS011;873;47.696;8.068;2022-12-24T06:33:28;6.73;;;1.47;;
1751;SDS011;873;47.696;8.068;2022-12-24T06:35:54;6.53;;;2.20;;
1751;SDS011;873;47.696;8.068;2022-12-24T06:38:20;6.97;;;1.50;;
1751;SDS011;873;47.696;8.068;2022-12-24T06:40:46;5.03;;;1.40;;
1751;SDS011;873;47.696;8.068;2022-12-24T06:43:11;5.70;;;1.77;;
1751;SDS011;873;47.696;8.068;2022-12-24T06:45:38;7.93;;;2.50;;
1751;SDS011;873;47.696;8.068;2022-12-24T06:48:03;7.27;;;2.00;;
1751;SDS011;873;47.696;8.068;2022-12-24T06:50:31;6.00;;;1.57;;
1751;SDS011;873;47.696;8.068;2022-12-24T06:52:57;11.17;;;2.03;;
1751;SDS011;873;47.696;8.068;2022-12-24T06:55:23;7.10;;;1.80;;
1751;SDS011;873;47.696;8.068;2022-12-24T06:57:48;9.57;;;1.70;;
1751;SDS011;873;47.696;8.068;2022-12-24T07:00:14;10.70;;;1.20;;
1751;SDS011;873;47.696;8.068;2022-12-24T07:02:40;7.87;;;1.10;;
1751;SDS011;873;47.696;8.068;2022-12-24T07:05:07;7.33;;;1.57;;
1751;SDS011;873;47.696;8.068;2022-12-24T07:07:35;6.67;;;1.60;;
1751;SDS011;873;47.696;8.068;2022-12-24T07:10:01;11.93;;;1.87;;
1751;SDS011;873;47.696;8.068;2022-12-24T07:12:28;8.70;;;1.70;;
1751;SDS011;873;47.696;8.068;2022-12-24T07:14:53;8.07;;;1.57;;
1751;SDS011;873;47.696;8.068;2022-12-24T07:17:19;7.37;;;1.70;;
1751;SDS011;873;47.696;8.068;2022-12-24T07:19:44;7.60;;;1.83;;
1751;SDS011;873;47.696;8.068;2022-12-24T07:22:10;5.90;;;2.03;;
1751;SDS011;873;47.696;8.068;2022-12-24T07:24:35;8.17;;;1.67;;
1751;SDS011;873;47.696;8.068;2022-12-24T07:27:01;8.93;;;1.73;;
1751;SDS011;873;47.696;8.068;2022-12-24T07:29:26;10.63;;;1.73;;
1751;SDS011;873;47.696;8.068;2022-12-24T07:31:52;4.20;;;1.30;;
1751;SDS011;873;47.696;8.068;2022-12-24T07:34:17;5.93;;;1.57;;
1751;SDS011;873;47.696;8.068;2022-12-24T07:36:43;4.20;;;1.07;;
1751;SDS011;873;47.696;8.068;2022-12-24T07:39:08;8.53;;;1.50;;
1751;SDS011;873;47.696;8.068;2022-12-24T07:41:34;8.47;;;1.80;;
1751;SDS011;873;47.696;8.068;2022-12-24T07:43:59;10.63;;;2.00;;
1751;SDS011;873;47.696;8.068;2022-12-24T07:46:25;11.33;;;1.90;;
1751;SDS011;873;47.696;8.068;2022-12-24T07:48:50;10.17;;;1.77;;
1751;SDS011;873;47.696;8.068;2022-12-24T07:51:15;7.10;;;2.07;;
1751;SDS011;873;47.696;8.068;2022-12-24T07:53:41;8.97;;;1.63;;
1751;SDS011;873;47.696;8.068;2022-12-24T07:56:12;8.30;;;1.77;;
1751;SDS011;873;47.696;8.068;2022-12-24T07:58:39;10.47;;;1.70;;
1751;SDS011;873;47.696;8.068;2022-12-24T08:01:04;4.67;;;1.57;;
1751;SDS011;873;47.696;8.068;2022-12-24T08:03:30;9.17;;;1.90;;
1751;SDS011;873;47.696;8.068;2022-12-24T08:05:55;5.00;;;1.80;;
1751;SDS011;873;47.696;8.068;2022-12-24T08:08:22;8.10;;;1.43;;
1751;SDS011;873;47.696;8.068;2022-12-24T08:10:48;11.03;;;2.30;;
1751;SDS011;873;47.696;8.068;2022-12-24T08:13:14;11.47;;;1.50;;
1751;SDS011;873;47.696;8.068;2022-12-24T08:15:40;10.17;;;1.80;;
1751;SDS011;873;47.696;8.068;2022-12-24T08:18:06;7.20;;;1.90;;
1751;SDS011;873;47.696;8.068;2022-12-24T08:20:32;7.20;;;1.83;;
1751;SDS011;873;47.696;8.068;2022-12-24T08:22:57;14.40;;;2.23;;
1751;SDS011;873;47.696;8.068;2022-12-24T08:25:23;13.87;;;2.00;;
1751;SDS011;873;47.696;8.068;2022-12-24T08:27:48;13.13;;;2.43;;
1751;SDS011;873;47.696;8.068;2022-12-24T08:30:14;8.47;;;1.70;;
1751;SDS011;873;47.696;8.068;2022-12-24T08:32:40;6.13;;;1.37;;
1751;SDS011;873;47.696;8.068;2022-12-24T08:35:05;9.27;;;2.00;;
1751;SDS011;873;47.696;8.068;2022-12-24T08:37:31;7.47;;;1.50;;
1751;SDS011;873;47.696;8.068;2022-12-24T08:39:57;5.87;;;1.83;;
1751;SDS011;873;47.696;8.068;2022-12-24T08:42:22;5.03;;;1.60;;
1751;SDS011;873;47.696;8.068;2022-12-24T08:44:48;7.67;;;1.77;;
1751;SDS011;873;47.696;8.068;2022-12-24T08:47:13;16.23;;;2.20;;
1751;SDS011;873;47.696;8.068;2022-12-24T08:49:39;18.10;;;2.47;;
1751;SDS011;873;47.696;8.068;2022-12-24T08:52:05;7.53;;;2.00;;
1751;SDS011;873;47.696;8.068;2022-12-24T08:54:30;9.27;;;1.67;;
1751;SDS011;873;47.696;8.068;2022-12-24T08:56:56;10.50;;;2.07;;
1751;SDS011;873;47.696;8.068;2022-12-24T08:59:22;7.67;;;1.70;;
1751;SDS011;873;47.696;8.068;2022-12-24T09:01:48;8.93;;;1.80;;
1751;SDS011;873;47.696;8.068;2022-12-24T09:04:13;7.57;;;1.40;;
1751;SDS011;873;47.696;8.068;2022-12-24T09:06:39;9.80;;;1.70;;
1751;SDS011;873;47.696;8.068;2022-12-24T09:09:04;9.57;;;2.37;;
1751;SDS011;873;47.696;8.068;2022-12-24T09:11:32;8.90;;;1.83;;
1751;SDS011;873;47.696;8.068;2022-12-24T09:13:58;6.67;;;1.43;;
1751;SDS011;873;47.696;8.068;2022-12-24T09:16:24;7.80;;;1.83;;
1751;SDS011;873;47.696;8.068;2022-12-24T09:18:49;6.33;;;1.50;;
1751;SDS011;873;47.696;8.068;2022-12-24T09:21:15;10.10;;;1.70;;
1751;SDS011;873;47.696;8.068;2022-12-24T09:23:44;9.30;;;1.90;;
1751;SDS011;873;47.696;8.068;2022-12-24T09:26:12;9.90;;;1.70;;
1751;SDS011;873;47.696;8.068;2022-12-24T09:28:50;13.37;;;1.90;;
1751;SDS011;873;47.696;8.068;2022-12-24T09:31:16;6.77;;;1.90;;
1751;SDS011;873;47.696;8.068;2022-12-24T09:33:42;9.00;;;1.30;;
1751;SDS011;873;47.696;8.068;2022-12-24T09:36:09;8.07;;;1.50;;
1751;SDS011;873;47.696;8.068;2022-12-24T09:38:35;10.37;;;1.30;;
1751;SDS011;873;47.696;8.068;2022-12-24T09:41:01;7.17;;;1.50;;
1751;SDS011;873;47.696;8.068;2022-12-24T09:43:36;6.63;;;1.40;;
1751;SDS011;873;47.696;8.068;2022-12-24T09:48:53;7.33;;;1.20;;
1751;SDS011;873;47.696;8.068;2022-12-24T09:54:33;6.23;;;1.60;;
1751;SDS011;873;47.696;8.068;2022-12-24T09:57:01;7.67;;;1.13;;
1751;SDS011;873;47.696;8.068;2022-12-24T09:59:38;6.40;;;1.50;;
1751;SDS011;873;47.696;8.068;2022-12-24T10:02:10;3.43;;;1.07;;
1751;SDS011;873;47.696;8.068;2022-12-24T10:04:38;6.50;;;1.20;;
1751;SDS011;873;47.696;8.068;2022-12-24T10:07:06;7.30;;;1.30;;
1751;SDS011;873;47.696;8.068;2022-12-24T10:12:55;8.10;;;1.07;;
1751;SDS011;873;47.696;8.068;2022-12-24T10:15:30;10.70;;;1.53;;
1751;SDS011;873;47.696;8.068;2022-12-24T10:23:16;6.90;;;1.10;;
1751;SDS011;873;47.696;8.068;2022-12-24T10:26:04;4.93;;;1.20;;
1751;SDS011;873;47.696;8.068;2022-12-24T10:31:29;3.93;;;1.10;;
1751;SDS011;873;47.696;8.068;2022-12-24T10:34:05;6.87;;;1.57;;
1751;SDS011;873;47.696;8.068;2022-12-24T10:36:37;6.73;;;1.20;;
1751;SDS011;873;47.696;8.068;2022-12-24T10:39:03;5.10;;;0.90;;
1751;SDS011;873;47.696;8.068;2022-12-24T10:41:28;7.67;;;0.97;;
1751;SDS011;873;47.696;8.068;2022-12-24T10:43:57;4.07;;;1.17;;
1751;SDS011;873;47.696;8.068;2022-12-24T10:46:39;3.83;;;0.70;;
1751;SDS011;873;47.696;8.068;2022-12-24T10:49:06;3.13;;;0.70;;
1751;SDS011;873;47.696;8.068;2022-12-24T10:56:50;5.67;;;0.90;;
1751;SDS011;873;47.696;8.068;2022-12-24T10:59:28;3.70;;;0.80;;
1751;SDS011;873;47.696;8.068;2022-12-24T11:02:31;4.57;;;1.13;;
1751;SDS011;873;47.696;8.068;2022-12-24T11:04:58;4.80;;;1.23;;
1751;SDS011;873;47.696;8.068;2022-12-24T11:07:25;4.43;;;0.97;;
1751;SDS011;873;47.696;8.068;2022-12-24T11:10:06;5.13;;;1.30;;
1751;SDS011;873;47.696;8.068;2022-12-24T11:12:34;6.37;;;0.90;;
1751;SDS011;873;47.696;8.068;2022-12-24T11:17:39;6.87;;;1.23;;
1751;SDS011;873;47.696;8.068;2022-12-24T11:20:05;3.47;;;0.77;;
1751;SDS011;873;47.696;8.068;2022-12-24T11:22:40;1.90;;;0.63;;
1751;SDS011;873;47.696;8.068;2022-12-24T11:25:12;6.40;;;1.03;;
1751;SDS011;873;47.696;8.068;2022-12-24T11:27:45;3.87;;;1.00;;
1751;SDS011;873;47.696;8.068;2022-12-24T11:30:20;3.43;;;0.90;;
1751;SDS011;873;47.696;8.068;2022-12-24T11:32:48;4.13;;;0.60;;
1751;SDS011;873;47.696;8.068;2022-12-24T11:38:10;5.07;;;0.80;;
1751;SDS011;873;47.696;8.068;2022-12-24T11:43:17;2.87;;;0.77;;
1751;SDS011;873;47.696;8.068;2022-12-24T11:45:49;5.13;;;0.80;;
1751;SDS011;873;47.696;8.068;2022-12-24T11:48:27;2.60;;;0.97;;
1751;SDS011;873;47.696;8.068;2022-12-24T11:51:04;3.63;;;0.80;;
1751;SDS011;873;47.696;8.068;2022-12-24T11:53:35;1.13;;;0.60;;
1751;SDS011;873;47.696;8.068;2022-12-24T11:56:12;2.50;;;0.60;;
1751;SDS011;873;47.696;8.068;2022-12-24T11:58:46;2.97;;;0.93;;
1751;SDS011;873;47.696;8.068;2022-12-24T12:01:25;3.63;;;0.83;;
1751;SDS011;873;47.696;8.068;2022-12-24T12:03:55;6.60;;;0.67;;
1751;SDS011;873;47.696;8.068;2022-12-24T12:09:29;2.37;;;0.80;;
1751;SDS011;873;47.696;8.068;2022-12-24T12:11:59;3.93;;;0.60;;
1751;SDS011;873;47.696;8.068;2022-12-24T12:14:31;4.63;;;0.80;;
1751;SDS011;873;47.696;8.068;2022-12-24T12:17:02;1.13;;;0.60;;
1751;SDS011;873;47.696;8.068;2022-12-24T12:19:51;3.50;;;0.83;;
1751;SDS011;873;47.696;8.068;2022-12-24T12:22:24;6.67;;;0.80;;
1751;SDS011;873;47.696;8.068;2022-12-24T12:24:53;3.73;;;0.60;;
1751;SDS011;873;47.696;8.068;2022-12-24T12:27:27;2.87;;;0.57;;
1751;SDS011;873;47.696;8.068;2022-12-24T12:29:59;2.63;;;1.43;;
1751;SDS011;873;47.696;8.068;2022-12-24T12:32:34;1.83;;;0.50;;
1751;SDS011;873;47.696;8.068;2022-12-24T12:35:25;1.00;;;0.40;;
1751;SDS011;873;47.696;8.068;2022-12-24T12:37:55;1.83;;;0.70;;
1751;SDS011;873;47.696;8.068;2022-12-24T12:40:31;2.43;;;0.60;;
1751;SDS011;873;47.696;8.068;2022-12-24T12:57:12;1.60;;;0.80;;
1751;SDS011;873;47.696;8.068;2022-12-24T13:02:20;3.63;;;0.80;;
1751;SDS011;873;47.696;8.068;2022-12-24T13:21:33;3.58;;;0.75;;
1751;SDS011;873;47.696;8.068;2022-12-24T13:24:13;2.70;;;0.70;;
1751;SDS011;873;47.696;8.068;2022-12-24T13:34:59;3.00;;;0.60;;
1751;SDS011;873;47.696;8.068;2022-12-24T13:48:16;2.60;;;0.80;;
1751;SDS011;873;47.696;8.068;2022-12-24T13:50:53;5.23;;;1.13;;
1751;SDS011;873;47.696;8.068;2022-12-24T13:55:59;4.00;;;0.80;;
1751;SDS011;873;47.696;8.068;2022-12-24T13:58:40;7.27;;;1.50;;
1751;SDS011;873;47.696;8.068;2022-12-24T14:01:09;3.93;;;1.03;;
1751;SDS011;873;47.696;8.068;2022-12-24T14:06:19;3.77;;;1.00;;
1751;SDS011;873;47.696;8.068;2022-12-24T14:08:48;5.03;;;1.10;;
1751;SDS011;873;47.696;8.068;2022-12-24T14:11:16;4.27;;;0.90;;
1751;SDS011;873;47.696;8.068;2022-12-24T14:21:54;5.07;;;1.33;;
1751;SDS011;873;47.696;8.068;2022-12-24T14:24:41;2.50;;;0.97;;
1751;SDS011;873;47.696;8.068;2022-12-24T14:29:49;5.13;;;2.00;;
1751;SDS011;873;47.696;8.068;2022-12-24T14:32:16;7.03;;;1.53;;
1751;SDS011;873;47.696;8.068;2022-12-24T14:34:42;2.87;;;1.40;;
1751;SDS011;873;47.696;8.068;2022-12-24T14:37:08;2.33;;;1.57;;
1751;SDS011;873;47.696;8.068;2022-12-24T14:39:43;4.67;;;1.67;;
1751;SDS011;873;47.696;8.068;2022-12-24T14:56:29;6.07;;;1.90;;
1751;SDS011;873;47.696;8.068;2022-12-24T14:58:54;3.40;;;1.97;;
1751;SDS011;873;47.696;8.068;2022-12-24T15:04:15;4.30;;;1.93;;
1751;SDS011;873;47.696;8.068;2022-12-24T15:06:45;2.10;;;1.77;;
1751;SDS011;873;47.696;8.068;2022-12-24T15:09:16;2.83;;;2.10;;
1751;SDS011;873;47.696;8.068;2022-12-24T15:11:44;2.73;;;2.00;;
1751;SDS011;873;47.696;8.068;2022-12-24T15:14:11;2.27;;;1.60;;
1751;SDS011;873;47.696;8.068;2022-12-24T15:16:37;3.30;;;1.93;;
1751;SDS011;873;47.696;8.068;2022-12-24T15:19:04;3.57;;;1.90;;
1751;SDS011;873;47.696;8.068;2022-12-24T15:21:35;5.10;;;1.70;;
1751;SDS011;873;47.696;8.068;2022-12-24T15:24:01;2.93;;;1.80;;
1751;SDS011;873;47.696;8.068;2022-12-24T15:26:28;3.20;;;1.80;;
1751;SDS011;873;47.696;8.068;2022-12-24T15:28:56;4.53;;;2.00;;
1751;SDS011;873;47.696;8.068;2022-12-24T15:31:24;2.60;;;2.17;;
1751;SDS011;873;47.696;8.068;2022-12-24T15:33:51;4.13;;;1.80;;
1751;SDS011;873;47.696;8.068;2022-12-24T15:36:34;2.10;;;1.90;;
1751;SDS011;873;47.696;8.068;2022-12-24T15:39:02;2.03;;;1.83;;
1751;SDS011;873;47.696;8.068;2022-12-24T15:41:37;3.67;;;1.90;;
1751;SDS011;873;47.696;8.068;2022-12-24T15:44:24;2.90;;;2.03;;
1751;SDS011;873;47.696;8.068;2022-12-24T15:46:50;4.10;;;2.37;;
1751;SDS011;873;47.696;8.068;2022-12-24T15:49:22;3.70;;;2.40;;
1751;SDS011;873;47.696;8.068;2022-12-24T15:51:48;5.70;;;2.50;;
1751;SDS011;873;47.696;8.068;2022-12-24T15:54:13;3.13;;;2.20;;
1751;SDS011;873;47.696;8.068;2022-12-24T15:56:44;4.07;;;2.57;;
1751;SDS011;873;47.696;8.068;2022-12-24T16:01:53;6.20;;;3.23;;
1751;SDS011;873;47.696;8.068;2022-12-24T16:06:57;5.57;;;3.17;;
1751;SDS011;873;47.696;8.068;2022-12-24T16:09:30;3.20;;;2.90;;
1751;SDS011;873;47.696;8.068;2022-12-24T16:11:57;6.23;;;3.13;;
1751;SDS011;873;47.696;8.068;2022-12-24T16:14:23;3.63;;;2.80;;
1751;SDS011;873;47.696;8.068;2022-12-24T16:16:49;3.93;;;2.63;;
1751;SDS011;873;47.696;8.068;2022-12-24T16:19:20;3.93;;;2.97;;
1751;SDS011;873;47.696;8.068;2022-12-24T16:21:58;5.07;;;2.80;;
1751;SDS011;873;47.696;8.068;2022-12-24T16:24:45;5.47;;;2.63;;
1751;SDS011;873;47.696;8.068;2022-12-24T16:27:11;3.43;;;2.73;;
1751;SDS011;873;47.696;8.068;2022-12-24T16:29:37;4.00;;;2.73;;
1751;SDS011;873;47.696;8.068;2022-12-24T16:32:03;4.53;;;2.90;;
1751;SDS011;873;47.696;8.068;2022-12-24T16:34:29;3.20;;;2.70;;
1751;SDS011;873;47.696;8.068;2022-12-24T16:36:56;3.20;;;2.37;;
1751;SDS011;873;47.696;8.068;2022-12-24T16:39:23;6.13;;;3.03;;
1751;SDS011;873;47.696;8.068;2022-12-24T16:41:54;3.77;;;3.03;;
1751;SDS011;873;47.696;8.068;2022-12-24T16:44:41;4.93;;;3.43;;
1751;SDS011;873;47.696;8.068;2022-12-24T16:47:09;4.77;;;3.17;;
1751;SDS011;873;47.696;8.068;2022-12-24T16:49:37;3.37;;;2.73;;
1751;SDS011;873;47.696;8.068;2022-12-24T16:52:04;3.43;;;2.40;;
1751;SDS011;873;47.696;8.068;2022-12-24T16:54:30;4.30;;;2.27;;
1751;SDS011;873;47.696;8.068;2022-12-24T16:56:55;4.20;;;2.13;;
1751;SDS011;873;47.696;8.068;2022-12-24T16:59:21;3.37;;;2.23;;
1751;SDS011;873;47.696;8.068;2022-12-24T17:01:49;5.23;;;2.77;;
1751;SDS011;873;47.696;8.068;2022-12-24T17:04:15;3.20;;;2.40;;
1751;SDS011;873;47.696;8.068;2022-12-24T17:06:42;3.20;;;2.13;;
1751;SDS011;873;47.696;8.068;2022-12-24T17:09:08;2.50;;;2.23;;
1751;SDS011;873;47.696;8.068;2022-12-24T17:11:34;3.43;;;2.20;;
1751;SDS011;873;47.696;8.068;2022-12-24T17:14:00;3.90;;;2.63;;
1751;SDS011;873;47.696;8.068;2022-12-24T17:16:26;3.90;;;1.90;;
1751;SDS011;873;47.696;8.068;2022-12-24T17:18:52;2.87;;;2.13;;
1751;SDS011;873;47.696;8.068;2022-12-24T17:21:18;3.43;;;2.23;;
1751;SDS011;873;47.696;8.068;2022-12-24T17:23:43;4.13;;;2.23;;
1751;SDS011;873;47.696;8.068;2022-12-24T17:26:09;2.80;;;1.80;;
1751;SDS011;873;47.696;8.068;2022-12-24T17:28:35;2.30;;;1.70;;
1751;SDS011;873;47.696;8.068;2022-12-24T17:31:06;2.97;;;2.07;;
1751;SDS011;873;47.696;8.068;2022-12-24T17:33:32;3.30;;;2.20;;
1751;SDS011;873;47.696;8.068;2022-12-24T17:35:58;3.60;;;2.03;;
1751;SDS011;873;47.696;8.068;2022-12-24T17:38:23;8.93;;;2.30;;
1751;SDS011;873;47.696;8.068;2022-12-24T17:40:49;39.47;;;3.37;;
1751;SDS011;873;47.696;8.068;2022-12-24T17:43:15;4.60;;;2.00;;
1751;SDS011;873;47.696;8.068;2022-12-24T17:45:40;5.73;;;2.00;;
1751;SDS011;873;47.696;8.068;2022-12-24T17:48:07;3.73;;;2.00;;
1751;SDS011;873;47.696;8.068;2022-12-24T17:50:35;7.90;;;2.17;;
1751;SDS011;873;47.696;8.068;2022-12-24T17:53:02;99.43;;;6.93;;
1751;SDS011;873;47.696;8.068;2022-12-24T17:55:27;23.00;;;2.90;;
1751;SDS011;873;47.696;8.068;2022-12-24T17:57:53;3.90;;;2.63;;
1751;SDS011;873;47.696;8.068;2022-12-24T18:00:18;6.33;;;2.40;;
1751;SDS011;873;47.696;8.068;2022-12-24T18:02:44;3.83;;;2.33;;
1751;SDS011;873;47.696;8.068;2022-12-24T18:05:09;4.40;;;2.23;;